sensor_id;sensor_type;location;lat;lon;timestamp;temperature;humidity
11736;DHT22;5924;51.398;7.088;2023-04-15T00:02:17;3.30;99.90
11736;DHT22;5924;51.398;7.088;2023-04-15T00:04:46;3.30;99.90
11736;DHT22;5924;51.398;7.088;2023-04-15T00:07:13;3.30;99.90
11736;DHT22;5924;51.398;7.088;2023-04-15T00:09:41;3.30;99.90
11736;DHT22;5924;51.398;7.088;2023-04-15T00:12:07;3.20;99.90
11736;DHT22;5924;51.398;7.088;2023-04-15T00:14:34;3.20;99.90
11736;DHT22;5924;51.398;7.088;2023-04-15T00:17:01;3.30;99.90
11736;DHT22;5924;51.398;7.088;2023-04-15T00:19:28;3.00;99.90
11736;DHT22;5924;51.398;7.088;2023-04-15T00:21:54;3.00;99.90
11736;DHT22;5924;51.398;7.088;2023-04-15T00:24:19;3.10;99.90
11736;DHT22;5924;51.398;7.088;2023-04-15T00:26:45;2.90;99.90
11736;DHT22;5924;51.398;7.088;2023-04-15T00:29:11;2.90;99.90
11736;DHT22;5924;51.398;7.088;2023-04-15T00:31:37;2.80;99.90
11736;DHT22;5924;51.398;7.088;2023-04-15T00:34:03;2.80;99.90
11736;DHT22;5924;51.398;7.088;2023-04-15T00:36:29;2.80;99.90
11736;DHT22;5924;51.398;7.088;2023-04-15T00:38:56;2.70;99.90
11736;DHT22;5924;51.398;7.088;2023-04-15T00:41:22;2.70;99.90
11736;DHT22;5924;51.398;7.088;2023-04-15T00:43:47;2.70;99.90
11736;DHT22;5924;51.398;7.088;2023-04-15T00:46:15;2.70;99.90
11736;DHT22;5924;51.398;7.088;2023-04-15T00:48:41;2.70;99.90
11736;DHT22;5924;51.398;7.088;2023-04-15T00:51:07;2.70;99.90
11736;DHT22;5924;51.398;7.088;2023-04-15T00:53:34;2.70;99.90
11736;DHT22;5924;51.398;7.088;2023-04-15T00:55:59;2.70;99.90
11736;DHT22;5924;51.398;7.088;2023-04-15T00:58:25;2.60;99.90
11736;DHT22;5924;51.398;7.088;2023-04-15T01:00:52;2.60;99.90
11736;DHT22;5924;51.398;7.088;2023-04-15T01:03:19;2.60;99.90
11736;DHT22;5924;51.398;7.088;2023-04-15T01:05:45;2.60;99.90
11736;DHT22;5924;51.398;7.088;2023-04-15T01:08:11;2.50;99.90
11736;DHT22;5924;51.398;7.088;2023-04-15T01:10:37;2.50;99.90
11736;DHT22;5924;51.398;7.088;2023-04-15T01:13:03;2.60;99.90
11736;DHT22;5924;51.398;7.088;2023-04-15T01:15:29;2.60;99.90
11736;DHT22;5924;51.398;7.088;2023-04-15T01:17:57;2.50;99.90
11736;DHT22;5924;51.398;7.088;2023-04-15T01:20:23;2.50;99.90
11736;DHT22;5924;51.398;7.088;2023-04-15T01:22:49;2.50;99.90
11736;DHT22;5924;51.398;7.088;2023-04-15T01:25:24;2.70;99.90
11736;DHT22;5924;51.398;7.088;2023-04-15T01:27:51;2.50;99.90
11736;DHT22;5924;51.398;7.088;2023-04-15T01:30:17;2.50;99.90
11736;DHT22;5924;51.398;7.088;2023-04-15T01:32:43;2.40;99.90
11736;DHT22;5924;51.398;7.088;2023-04-15T01:35:08;2.40;99.90
11736;DHT22;5924;51.398;7.088;2023-04-15T01:37:35;2.40;99.90
11736;DHT22;5924;51.398;7.088;2023-04-15T01:40:02;2.40;99.90
11736;DHT22;5924;51.398;7.088;2023-04-15T01:42:27;2.40;99.90
11736;DHT22;5924;51.398;7.088;2023-04-15T01:44:53;2.30;99.90
11736;DHT22;5924;51.398;7.088;2023-04-15T01:47:19;2.30;99.90
11736;DHT22;5924;51.398;7.088;2023-04-15T01:49:45;2.20;99.90
11736;DHT22;5924;51.398;7.088;2023-04-15T01:52:10;2.20;99.90
11736;DHT22;5924;51.398;7.088;2023-04-15T01:54:36;2.20;99.90
11736;DHT22;5924;51.398;7.088;2023-04-15T01:57:02;2.20;99.90
11736;DHT22;5924;51.398;7.088;2023-04-15T01:59:28;2.20;99.90
11736;DHT22;5924;51.398;7.088;2023-04-15T02:01:54;3.10;99.90
11736;DHT22;5924;51.398;7.088;2023-04-15T02:04:20;2.10;99.90
11736;DHT22;5924;51.398;7.088;2023-04-15T02:06:46;2.10;99.90
11736;DHT22;5924;51.398;7.088;2023-04-15T02:09:11;2.10;99.90
11736;DHT22;5924;51.398;7.088;2023-04-15T02:11:37;2.00;99.90
11736;DHT22;5924;51.398;7.088;2023-04-15T02:14:03;2.00;99.90
11736;DHT22;5924;51.398;7.088;2023-04-15T02:16:31;1.90;99.90
11736;DHT22;5924;51.398;7.088;2023-04-15T02:18:56;1.90;99.90
11736;DHT22;5924;51.398;7.088;2023-04-15T02:21:22;1.90;99.90
11736;DHT22;5924;51.398;7.088;2023-04-15T02:23:47;2.00;99.90
11736;DHT22;5924;51.398;7.088;2023-04-15T02:26:13;1.90;99.90
11736;DHT22;5924;51.398;7.088;2023-04-15T02:28:39;1.80;99.90
11736;DHT22;5924;51.398;7.088;2023-04-15T02:31:05;1.80;99.90
11736;DHT22;5924;51.398;7.088;2023-04-15T02:33:32;1.80;99.90
11736;DHT22;5924;51.398;7.088;2023-04-15T02:35:57;1.70;99.90
11736;DHT22;5924;51.398;7.088;2023-04-15T02:38:23;1.70;99.90
11736;DHT22;5924;51.398;7.088;2023-04-15T02:40:49;1.70;99.90
11736;DHT22;5924;51.398;7.088;2023-04-15T02:43:15;1.70;99.90
11736;DHT22;5924;51.398;7.088;2023-04-15T02:45:42;1.70;99.90
11736;DHT22;5924;51.398;7.088;2023-04-15T02:48:08;1.70;99.90
11736;DHT22;5924;51.398;7.088;2023-04-15T02:50:34;1.60;99.90
11736;DHT22;5924;51.398;7.088;2023-04-15T02:53:00;1.60;99.90
11736;DHT22;5924;51.398;7.088;2023-04-15T02:55:27;2.30;99.90
11736;DHT22;5924;51.398;7.088;2023-04-15T02:57:53;1.60;99.90
11736;DHT22;5924;51.398;7.088;2023-04-15T03:00:18;1.60;99.90
11736;DHT22;5924;51.398;7.088;2023-04-15T03:02:45;1.60;99.90
11736;DHT22;5924;51.398;7.088;2023-04-15T03:05:12;1.60;99.90
11736;DHT22;5924;51.398;7.088;2023-04-15T03:07:38;1.70;99.90
11736;DHT22;5924;51.398;7.088;2023-04-15T03:10:05;1.60;99.90
11736;DHT22;5924;51.398;7.088;2023-04-15T03:12:31;1.60;99.90
11736;DHT22;5924;51.398;7.088;2023-04-15T03:14:57;1.60;99.90
11736;DHT22;5924;51.398;7.088;2023-04-15T03:17:22;1.60;99.90
11736;DHT22;5924;51.398;7.088;2023-04-15T03:19:48;1.60;99.90
11736;DHT22;5924;51.398;7.088;2023-04-15T03:22:14;1.50;99.90
11736;DHT22;5924;51.398;7.088;2023-04-15T03:24:40;1.50;99.90
11736;DHT22;5924;51.398;7.088;2023-04-15T03:27:06;1.40;99.90
11736;DHT22;5924;51.398;7.088;2023-04-15T03:29:32;1.40;99.90
11736;DHT22;5924;51.398;7.088;2023-04-15T03:31:58;1.50;99.90
11736;DHT22;5924;51.398;7.088;2023-04-15T03:34:23;1.50;99.90
11736;DHT22;5924;51.398;7.088;2023-04-15T03:36:49;1.50;99.90
11736;DHT22;5924;51.398;7.088;2023-04-15T03:39:15;1.50;99.90
11736;DHT22;5924;51.398;7.088;2023-04-15T03:41:41;1.40;99.90
11736;DHT22;5924;51.398;7.088;2023-04-15T03:44:06;1.40;99.90
11736;DHT22;5924;51.398;7.088;2023-04-15T03:46:32;1.40;99.90
11736;DHT22;5924;51.398;7.088;2023-04-15T03:48:58;1.40;99.90
11736;DHT22;5924;51.398;7.088;2023-04-15T03:51:23;1.40;99.90
11736;DHT22;5924;51.398;7.088;2023-04-15T03:53:49;1.40;99.90
11736;DHT22;5924;51.398;7.088;2023-04-15T03:56:15;1.30;99.90
11736;DHT22;5924;51.398;7.088;2023-04-15T03:58:41;1.30;99.90
11736;DHT22;5924;51.398;7.088;2023-04-15T04:01:07;1.20;99.90
11736;DHT22;5924;51.398;7.088;2023-04-15T04:03:32;1.20;99.90
11736;DHT22;5924;51.398;7.088;2023-04-15T04:05:58;1.20;99.90
11736;DHT22;5924;51.398;7.088;2023-04-15T04:08:24;1.20;99.90
11736;DHT22;5924;51.398;7.088;2023-04-15T04:10:51;1.20;99.90
11736;DHT22;5924;51.398;7.088;2023-04-15T04:13:17;1.20;99.90
11736;DHT22;5924;51.398;7.088;2023-04-15T04:15:42;1.10;99.90
11736;DHT22;5924;51.398;7.088;2023-04-15T04:18:08;1.10;99.90
11736;DHT22;5924;51.398;7.088;2023-04-15T04:20:34;1.10;99.90
11736;DHT22;5924;51.398;7.088;2023-04-15T04:22:59;1.10;99.90
11736;DHT22;5924;51.398;7.088;2023-04-15T04:25:25;1.10;99.90
11736;DHT22;5924;51.398;7.088;2023-04-15T04:27:51;1.10;99.90
11736;DHT22;5924;51.398;7.088;2023-04-15T04:30:17;1.10;99.90
11736;DHT22;5924;51.398;7.088;2023-04-15T04:32:43;1.90;99.90
11736;DHT22;5924;51.398;7.088;2023-04-15T04:35:08;1.10;99.90
11736;DHT22;5924;51.398;7.088;2023-04-15T04:37:34;1.10;99.90
11736;DHT22;5924;51.398;7.088;2023-04-15T04:40:00;1.10;99.90
11736;DHT22;5924;51.398;7.088;2023-04-15T04:42:25;1.10;99.90
11736;DHT22;5924;51.398;7.088;2023-04-15T04:44:51;1.10;99.90
11736;DHT22;5924;51.398;7.088;2023-04-15T04:47:16;1.10;99.90
11736;DHT22;5924;51.398;7.088;2023-04-15T04:49:42;1.00;99.90
11736;DHT22;5924;51.398;7.088;2023-04-15T04:52:08;1.00;99.90
11736;DHT22;5924;51.398;7.088;2023-04-15T04:54:33;1.00;99.90
11736;DHT22;5924;51.398;7.088;2023-04-15T04:56:59;1.00;99.90
11736;DHT22;5924;51.398;7.088;2023-04-15T04:59:25;1.00;99.90
11736;DHT22;5924;51.398;7.088;2023-04-15T05:01:51;1.00;99.90
11736;DHT22;5924;51.398;7.088;2023-04-15T05:04:16;1.00;99.90
11736;DHT22;5924;51.398;7.088;2023-04-15T05:06:42;1.10;99.90
11736;DHT22;5924;51.398;7.088;2023-04-15T05:09:08;1.10;99.90
11736;DHT22;5924;51.398;7.088;2023-04-15T05:11:33;1.10;99.90
11736;DHT22;5924;51.398;7.088;2023-04-15T05:13:59;1.20;99.90
11736;DHT22;5924;51.398;7.088;2023-04-15T05:16:26;1.10;99.90
11736;DHT22;5924;51.398;7.088;2023-04-15T05:18:52;1.10;99.90
11736;DHT22;5924;51.398;7.088;2023-04-15T05:21:18;1.10;99.90
11736;DHT22;5924;51.398;7.088;2023-04-15T05:23:43;1.10;99.90
11736;DHT22;5924;51.398;7.088;2023-04-15T05:26:09;1.20;99.90
11736;DHT22;5924;51.398;7.088;2023-04-15T05:28:35;1.60;99.90
11736;DHT22;5924;51.398;7.088;2023-04-15T05:31:01;1.50;99.90
11736;DHT22;5924;51.398;7.088;2023-04-15T05:33:27;1.40;99.90
11736;DHT22;5924;51.398;7.088;2023-04-15T05:35:52;1.50;99.90
11736;DHT22;5924;51.398;7.088;2023-04-15T05:38:18;1.40;99.90
11736;DHT22;5924;51.398;7.088;2023-04-15T05:40:43;1.40;99.90
11736;DHT22;5924;51.398;7.088;2023-04-15T05:43:09;1.50;99.90
11736;DHT22;5924;51.398;7.088;2023-04-15T05:45:35;1.50;99.90
11736;DHT22;5924;51.398;7.088;2023-04-15T05:48:00;1.50;99.90
11736;DHT22;5924;51.398;7.088;2023-04-15T05:50:26;1.60;99.90
11736;DHT22;5924;51.398;7.088;2023-04-15T05:52:52;1.70;99.90
11736;DHT22;5924;51.398;7.088;2023-04-15T05:55:17;1.70;99.90
11736;DHT22;5924;51.398;7.088;2023-04-15T05:57:43;1.90;99.90
11736;DHT22;5924;51.398;7.088;2023-04-15T06:00:09;1.90;99.90
11736;DHT22;5924;51.398;7.088;2023-04-15T06:02:35;2.00;99.90
11736;DHT22;5924;51.398;7.088;2023-04-15T06:05:01;2.10;99.90
11736;DHT22;5924;51.398;7.088;2023-04-15T06:07:27;2.30;99.90
11736;DHT22;5924;51.398;7.088;2023-04-15T06:09:53;2.40;99.90
11736;DHT22;5924;51.398;7.088;2023-04-15T06:12:18;2.60;99.90
11736;DHT22;5924;51.398;7.088;2023-04-15T06:14:44;2.70;99.90
11736;DHT22;5924;51.398;7.088;2023-04-15T06:17:10;2.90;99.90
11736;DHT22;5924;51.398;7.088;2023-04-15T06:19:35;3.10;99.90
11736;DHT22;5924;51.398;7.088;2023-04-15T06:22:01;3.20;99.90
11736;DHT22;5924;51.398;7.088;2023-04-15T06:24:27;3.40;99.90
11736;DHT22;5924;51.398;7.088;2023-04-15T06:26:53;3.60;99.90
11736;DHT22;5924;51.398;7.088;2023-04-15T06:29:19;3.70;99.90
11736;DHT22;5924;51.398;7.088;2023-04-15T06:31:47;3.90;99.90
11736;DHT22;5924;51.398;7.088;2023-04-15T06:34:12;4.00;99.90
11736;DHT22;5924;51.398;7.088;2023-04-15T06:36:38;4.20;99.90
11736;DHT22;5924;51.398;7.088;2023-04-15T06:39:04;4.40;99.90
11736;DHT22;5924;51.398;7.088;2023-04-15T06:41:29;4.40;99.90
11736;DHT22;5924;51.398;7.088;2023-04-15T06:43:55;4.50;99.90
11736;DHT22;5924;51.398;7.088;2023-04-15T06:46:21;4.80;99.90
11736;DHT22;5924;51.398;7.088;2023-04-15T06:48:46;4.90;99.90
11736;DHT22;5924;51.398;7.088;2023-04-15T06:51:12;5.10;99.90
11736;DHT22;5924;51.398;7.088;2023-04-15T06:53:38;5.30;99.90
11736;DHT22;5924;51.398;7.088;2023-04-15T06:56:09;5.40;99.90
11736;DHT22;5924;51.398;7.088;2023-04-15T06:58:35;5.50;99.90
11736;DHT22;5924;51.398;7.088;2023-04-15T07:01:01;5.60;99.90
11736;DHT22;5924;51.398;7.088;2023-04-15T07:03:28;5.70;99.90
11736;DHT22;5924;51.398;7.088;2023-04-15T07:05:53;5.80;99.90
11736;DHT22;5924;51.398;7.088;2023-04-15T07:08:19;5.80;99.90
11736;DHT22;5924;51.398;7.088;2023-04-15T07:10:45;5.90;99.90
11736;DHT22;5924;51.398;7.088;2023-04-15T07:13:11;6.00;99.90
11736;DHT22;5924;51.398;7.088;2023-04-15T07:15:37;6.10;99.90
11736;DHT22;5924;51.398;7.088;2023-04-15T07:18:03;6.20;99.90
11736;DHT22;5924;51.398;7.088;2023-04-15T07:20:28;6.30;99.90
11736;DHT22;5924;51.398;7.088;2023-04-15T07:22:55;6.40;99.90
11736;DHT22;5924;51.398;7.088;2023-04-15T07:25:20;6.40;99.90
11736;DHT22;5924;51.398;7.088;2023-04-15T07:27:46;6.50;99.90
11736;DHT22;5924;51.398;7.088;2023-04-15T07:30:12;6.70;99.90
11736;DHT22;5924;51.398;7.088;2023-04-15T07:32:38;6.80;99.90
11736;DHT22;5924;51.398;7.088;2023-04-15T07:35:04;6.80;99.90
11736;DHT22;5924;51.398;7.088;2023-04-15T07:37:30;7.00;99.90
11736;DHT22;5924;51.398;7.088;2023-04-15T07:39:55;7.10;99.90
11736;DHT22;5924;51.398;7.088;2023-04-15T07:42:21;7.30;99.90
11736;DHT22;5924;51.398;7.088;2023-04-15T07:44:47;7.50;99.90
11736;DHT22;5924;51.398;7.088;2023-04-15T07:47:13;7.70;99.90
11736;DHT22;5924;51.398;7.088;2023-04-15T07:49:40;7.80;99.90
11736;DHT22;5924;51.398;7.088;2023-04-15T07:52:06;8.10;99.90
11736;DHT22;5924;51.398;7.088;2023-04-15T07:54:31;8.30;99.90
11736;DHT22;5924;51.398;7.088;2023-04-15T07:56:57;8.50;99.90
11736;DHT22;5924;51.398;7.088;2023-04-15T07:59:23;8.80;99.90
11736;DHT22;5924;51.398;7.088;2023-04-15T08:01:49;8.90;99.90
11736;DHT22;5924;51.398;7.088;2023-04-15T08:04:14;9.00;99.90
11736;DHT22;5924;51.398;7.088;2023-04-15T08:06:40;9.20;99.90
11736;DHT22;5924;51.398;7.088;2023-04-15T08:09:06;9.30;99.90
11736;DHT22;5924;51.398;7.088;2023-04-15T08:11:33;9.40;99.90
11736;DHT22;5924;51.398;7.088;2023-04-15T08:13:59;9.50;99.90
11736;DHT22;5924;51.398;7.088;2023-04-15T08:16:25;9.60;99.90
11736;DHT22;5924;51.398;7.088;2023-04-15T08:18:54;9.60;99.90
11736;DHT22;5924;51.398;7.088;2023-04-15T08:21:20;9.70;99.90
11736;DHT22;5924;51.398;7.088;2023-04-15T08:23:47;9.70;99.90
11736;DHT22;5924;51.398;7.088;2023-04-15T08:26:14;9.80;99.90
11736;DHT22;5924;51.398;7.088;2023-04-15T08:28:41;10.00;99.90
11736;DHT22;5924;51.398;7.088;2023-04-15T08:31:07;10.80;99.90
11736;DHT22;5924;51.398;7.088;2023-04-15T08:33:33;10.20;99.90
11736;DHT22;5924;51.398;7.088;2023-04-15T08:35:59;10.30;99.90
11736;DHT22;5924;51.398;7.088;2023-04-15T08:38:25;10.40;99.90
11736;DHT22;5924;51.398;7.088;2023-04-15T08:40:51;10.50;99.90
11736;DHT22;5924;51.398;7.088;2023-04-15T08:43:21;10.50;99.90
11736;DHT22;5924;51.398;7.088;2023-04-15T08:45:52;10.60;99.90
11736;DHT22;5924;51.398;7.088;2023-04-15T08:48:18;10.50;99.90
11736;DHT22;5924;51.398;7.088;2023-04-15T08:50:45;10.50;99.90
11736;DHT22;5924;51.398;7.088;2023-04-15T08:53:11;10.70;99.90
11736;DHT22;5924;51.398;7.088;2023-04-15T08:55:44;10.80;99.90
11736;DHT22;5924;51.398;7.088;2023-04-15T08:58:12;11.30;99.90
11736;DHT22;5924;51.398;7.088;2023-04-15T09:00:41;10.70;99.90
11736;DHT22;5924;51.398;7.088;2023-04-15T09:03:07;10.90;99.90
11736;DHT22;5924;51.398;7.088;2023-04-15T09:05:34;10.90;99.90
11736;DHT22;5924;51.398;7.088;2023-04-15T09:08:01;11.20;99.90
11736;DHT22;5924;51.398;7.088;2023-04-15T09:10:27;11.40;99.90
11736;DHT22;5924;51.398;7.088;2023-04-15T09:12:54;11.60;99.90
11736;DHT22;5924;51.398;7.088;2023-04-15T09:15:20;11.70;99.90
11736;DHT22;5924;51.398;7.088;2023-04-15T09:17:46;11.60;99.90
11736;DHT22;5924;51.398;7.088;2023-04-15T09:20:14;11.70;99.90
11736;DHT22;5924;51.398;7.088;2023-04-15T09:22:41;11.80;99.90
11736;DHT22;5924;51.398;7.088;2023-04-15T09:27:56;11.90;99.90
11736;DHT22;5924;51.398;7.088;2023-04-15T09:30:22;11.80;99.90
11736;DHT22;5924;51.398;7.088;2023-04-15T09:32:55;11.60;99.90
11736;DHT22;5924;51.398;7.088;2023-04-15T09:35:23;11.40;99.90
11736;DHT22;5924;51.398;7.088;2023-04-15T09:37:50;11.30;99.90
11736;DHT22;5924;51.398;7.088;2023-04-15T09:43:01;11.10;99.90
11736;DHT22;5924;51.398;7.088;2023-04-15T09:45:27;11.00;99.90
11736;DHT22;5924;51.398;7.088;2023-04-15T09:47:53;10.90;99.90
11736;DHT22;5924;51.398;7.088;2023-04-15T09:50:19;10.90;99.90
11736;DHT22;5924;51.398;7.088;2023-04-15T09:52:46;10.90;99.90
11736;DHT22;5924;51.398;7.088;2023-04-15T09:55:12;10.80;99.90
11736;DHT22;5924;51.398;7.088;2023-04-15T09:57:39;10.70;99.90
11736;DHT22;5924;51.398;7.088;2023-04-15T10:00:12;10.70;99.90
11736;DHT22;5924;51.398;7.088;2023-04-15T10:02:41;10.70;99.90
11736;DHT22;5924;51.398;7.088;2023-04-15T10:05:13;11.40;99.90
11736;DHT22;5924;51.398;7.088;2023-04-15T10:07:39;10.70;99.90
11736;DHT22;5924;51.398;7.088;2023-04-15T10:10:08;10.70;99.90
11736;DHT22;5924;51.398;7.088;2023-04-15T10:12:36;10.80;99.90
11736;DHT22;5924;51.398;7.088;2023-04-15T10:15:04;10.70;99.90
11736;DHT22;5924;51.398;7.088;2023-04-15T10:17:32;10.60;99.90
11736;DHT22;5924;51.398;7.088;2023-04-15T10:20:03;10.60;99.90
11736;DHT22;5924;51.398;7.088;2023-04-15T10:22:30;9.90;99.90
11736;DHT22;5924;51.398;7.088;2023-04-15T10:24:57;10.60;99.90
11736;DHT22;5924;51.398;7.088;2023-04-15T10:27:24;10.60;99.90
11736;DHT22;5924;51.398;7.088;2023-04-15T10:29:51;10.50;99.90
11736;DHT22;5924;51.398;7.088;2023-04-15T10:32:18;10.60;99.90
11736;DHT22;5924;51.398;7.088;2023-04-15T10:34:46;10.80;99.90
11736;DHT22;5924;51.398;7.088;2023-04-15T10:37:32;11.10;99.90
11736;DHT22;5924;51.398;7.088;2023-04-15T10:39:58;11.30;99.90
11736;DHT22;5924;51.398;7.088;2023-04-15T10:42:23;11.40;99.90
11736;DHT22;5924;51.398;7.088;2023-04-15T10:44:58;11.30;99.90
11736;DHT22;5924;51.398;7.088;2023-04-15T10:47:24;11.20;99.90
11736;DHT22;5924;51.398;7.088;2023-04-15T10:49:54;11.10;99.90
11736;DHT22;5924;51.398;7.088;2023-04-15T10:52:26;11.00;99.90
11736;DHT22;5924;51.398;7.088;2023-04-15T10:55:11;11.00;99.90
11736;DHT22;5924;51.398;7.088;2023-04-15T10:57:39;11.00;99.90
11736;DHT22;5924;51.398;7.088;2023-04-15T11:00:15;11.10;99.90
11736;DHT22;5924;51.398;7.088;2023-04-15T11:02:56;11.20;99.90
11736;DHT22;5924;51.398;7.088;2023-04-15T11:05:48;11.30;99.90
11736;DHT22;5924;51.398;7.088;2023-04-15T11:08:14;11.30;99.90
11736;DHT22;5924;51.398;7.088;2023-04-15T11:13:19;11.00;99.90
11736;DHT22;5924;51.398;7.088;2023-04-15T11:15:47;10.90;99.90
11736;DHT22;5924;51.398;7.088;2023-04-15T11:18:23;10.80;99.90
11736;DHT22;5924;51.398;7.088;2023-04-15T11:20:51;10.80;99.90
11736;DHT22;5924;51.398;7.088;2023-04-15T11:25:55;10.90;99.90
11736;DHT22;5924;51.398;7.088;2023-04-15T11:28:31;10.80;99.90
11736;DHT22;5924;51.398;7.088;2023-04-15T11:31:05;10.60;99.90
11736;DHT22;5924;51.398;7.088;2023-04-15T11:33:31;10.50;99.90
11736;DHT22;5924;51.398;7.088;2023-04-15T11:35:58;10.40;99.90
11736;DHT22;5924;51.398;7.088;2023-04-15T11:38:23;10.30;99.90
11736;DHT22;5924;51.398;7.088;2023-04-15T11:40:50;10.30;99.90
11736;DHT22;5924;51.398;7.088;2023-04-15T11:43:19;10.20;99.90
11736;DHT22;5924;51.398;7.088;2023-04-15T11:45:54;10.20;99.90
11736;DHT22;5924;51.398;7.088;2023-04-15T11:48:42;10.20;99.90
11736;DHT22;5924;51.398;7.088;2023-04-15T11:51:08;10.20;99.90
11736;DHT22;5924;51.398;7.088;2023-04-15T11:56:04;10.00;99.90
11736;DHT22;5924;51.398;7.088;2023-04-15T11:58:29;10.00;99.90
11736;DHT22;5924;51.398;7.088;2023-04-15T12:01:00;9.90;99.90
11736;DHT22;5924;51.398;7.088;2023-04-15T12:03:30;9.90;99.90
11736;DHT22;5924;51.398;7.088;2023-04-15T12:06:18;9.80;99.90
11736;DHT22;5924;51.398;7.088;2023-04-15T12:11:38;9.90;99.90
11736;DHT22;5924;51.398;7.088;2023-04-15T12:14:08;9.90;99.90
11736;DHT22;5924;51.398;7.088;2023-04-15T12:16:37;10.00;99.90
11736;DHT22;5924;51.398;7.088;2023-04-15T12:19:09;10.00;99.90
11736;DHT22;5924;51.398;7.088;2023-04-15T12:21:38;10.10;99.90
11736;DHT22;5924;51.398;7.088;2023-04-15T12:24:06;10.10;99.90
11736;DHT22;5924;51.398;7.088;2023-04-15T12:26:52;10.00;99.90
11736;DHT22;5924;51.398;7.088;2023-04-15T12:29:19;10.10;99.90
11736;DHT22;5924;51.398;7.088;2023-04-15T12:31:50;10.10;99.90
11736;DHT22;5924;51.398;7.088;2023-04-15T12:34:16;10.10;99.90
11736;DHT22;5924;51.398;7.088;2023-04-15T12:36:43;10.10;99.90
11736;DHT22;5924;51.398;7.088;2023-04-15T12:39:08;10.10;99.90
11736;DHT22;5924;51.398;7.088;2023-04-15T12:41:34;11.10;99.90
11736;DHT22;5924;51.398;7.088;2023-04-15T12:44:00;9.90;99.90
11736;DHT22;5924;51.398;7.088;2023-04-15T12:46:26;9.90;99.90
11736;DHT22;5924;51.398;7.088;2023-04-15T12:48:52;9.70;99.90
11736;DHT22;5924;51.398;7.088;2023-04-15T12:51:18;9.80;99.90
11736;DHT22;5924;51.398;7.088;2023-04-15T12:53:45;9.80;99.90
11736;DHT22;5924;51.398;7.088;2023-04-15T12:56:12;9.70;99.90
11736;DHT22;5924;51.398;7.088;2023-04-15T12:58:37;9.70;99.90
11736;DHT22;5924;51.398;7.088;2023-04-15T13:01:03;9.70;99.90
11736;DHT22;5924;51.398;7.088;2023-04-15T13:03:29;9.70;99.90
11736;DHT22;5924;51.398;7.088;2023-04-15T13:05:55;9.70;99.90
11736;DHT22;5924;51.398;7.088;2023-04-15T13:08:22;9.70;99.90
11736;DHT22;5924;51.398;7.088;2023-04-15T13:10:47;9.70;99.90
11736;DHT22;5924;51.398;7.088;2023-04-15T13:13:13;9.70;99.90
11736;DHT22;5924;51.398;7.088;2023-04-15T13:15:39;9.90;99.90
11736;DHT22;5924;51.398;7.088;2023-04-15T13:18:06;9.90;99.90
11736;DHT22;5924;51.398;7.088;2023-04-15T13:20:32;10.00;99.90
11736;DHT22;5924;51.398;7.088;2023-04-15T13:22:58;8.30;99.90
11736;DHT22;5924;51.398;7.088;2023-04-15T13:25:24;9.90;99.90
11736;DHT22;5924;51.398;7.088;2023-04-15T13:27:50;10.00;99.90
11736;DHT22;5924;51.398;7.088;2023-04-15T13:30:16;10.10;99.90
11736;DHT22;5924;51.398;7.088;2023-04-15T13:32:42;10.10;99.90
11736;DHT22;5924;51.398;7.088;2023-04-15T13:35:08;10.10;99.90
11736;DHT22;5924;51.398;7.088;2023-04-15T13:37:34;10.10;99.90
11736;DHT22;5924;51.398;7.088;2023-04-15T13:39:59;10.00;99.90
11736;DHT22;5924;51.398;7.088;2023-04-15T13:42:25;10.00;99.90
11736;DHT22;5924;51.398;7.088;2023-04-15T13:44:52;9.90;99.90
11736;DHT22;5924;51.398;7.088;2023-04-15T13:47:20;9.80;99.90
11736;DHT22;5924;51.398;7.088;2023-04-15T13:49:46;9.80;99.90
11736;DHT22;5924;51.398;7.088;2023-04-15T13:52:12;9.70;99.90
11736;DHT22;5924;51.398;7.088;2023-04-15T13:54:38;9.60;99.90
11736;DHT22;5924;51.398;7.088;2023-04-15T13:57:04;9.40;99.90
11736;DHT22;5924;51.398;7.088;2023-04-15T13:59:32;9.20;99.90
11736;DHT22;5924;51.398;7.088;2023-04-15T14:01:57;9.20;99.90
11736;DHT22;5924;51.398;7.088;2023-04-15T14:04:23;9.20;99.90
11736;DHT22;5924;51.398;7.088;2023-04-15T14:06:49;9.10;99.90
11736;DHT22;5924;51.398;7.088;2023-04-15T14:09:15;9.10;99.90
11736;DHT22;5924;51.398;7.088;2023-04-15T14:11:40;9.10;99.90
11736;DHT22;5924;51.398;7.088;2023-04-15T14:14:06;9.10;99.90
11736;DHT22;5924;51.398;7.088;2023-04-15T14:16:32;9.00;99.90
11736;DHT22;5924;51.398;7.088;2023-04-15T14:18:58;9.00;99.90
11736;DHT22;5924;51.398;7.088;2023-04-15T14:21:24;9.00;99.90
11736;DHT22;5924;51.398;7.088;2023-04-15T14:23:52;9.00;99.90
11736;DHT22;5924;51.398;7.088;2023-04-15T14:26:18;9.10;99.90
11736;DHT22;5924;51.398;7.088;2023-04-15T14:28:44;9.10;99.90
11736;DHT22;5924;51.398;7.088;2023-04-15T14:31:10;9.20;99.90
11736;DHT22;5924;51.398;7.088;2023-04-15T14:33:35;9.30;99.90
11736;DHT22;5924;51.398;7.088;2023-04-15T14:36:01;9.30;99.90
11736;DHT22;5924;51.398;7.088;2023-04-15T14:38:27;9.30;99.90
11736;DHT22;5924;51.398;7.088;2023-04-15T14:40:52;9.30;99.90
11736;DHT22;5924;51.398;7.088;2023-04-15T14:43:19;9.30;99.90
11736;DHT22;5924;51.398;7.088;2023-04-15T14:45:45;9.20;99.90
11736;DHT22;5924;51.398;7.088;2023-04-15T14:48:11;9.20;99.90
11736;DHT22;5924;51.398;7.088;2023-04-15T14:50:37;9.20;99.90
11736;DHT22;5924;51.398;7.088;2023-04-15T14:53:03;9.20;99.90
11736;DHT22;5924;51.398;7.088;2023-04-15T14:55:28;9.10;99.90
11736;DHT22;5924;51.398;7.088;2023-04-15T14:57:54;9.10;99.90
11736;DHT22;5924;51.398;7.088;2023-04-15T15:00:20;9.10;99.90
11736;DHT22;5924;51.398;7.088;2023-04-15T15:02:46;9.00;99.90
11736;DHT22;5924;51.398;7.088;2023-04-15T15:05:12;9.00;99.90
11736;DHT22;5924;51.398;7.088;2023-04-15T15:07:38;6.90;99.90
11736;DHT22;5924;51.398;7.088;2023-04-15T15:10:06;8.90;99.90
11736;DHT22;5924;51.398;7.088;2023-04-15T15:12:32;8.90;99.90
11736;DHT22;5924;51.398;7.088;2023-04-15T15:14:58;8.90;99.90
11736;DHT22;5924;51.398;7.088;2023-04-15T15:17:24;8.90;99.90
11736;DHT22;5924;51.398;7.088;2023-04-15T15:19:50;8.90;99.90
11736;DHT22;5924;51.398;7.088;2023-04-15T15:22:16;8.90;99.90
11736;DHT22;5924;51.398;7.088;2023-04-15T15:24:41;8.90;99.90
11736;DHT22;5924;51.398;7.088;2023-04-15T15:27:07;8.90;99.90
11736;DHT22;5924;51.398;7.088;2023-04-15T15:29:33;9.00;99.90
11736;DHT22;5924;51.398;7.088;2023-04-15T15:31:59;8.90;99.90
11736;DHT22;5924;51.398;7.088;2023-04-15T15:34:24;8.90;99.90
11736;DHT22;5924;51.398;7.088;2023-04-15T15:36:51;8.90;99.90
11736;DHT22;5924;51.398;7.088;2023-04-15T15:39:16;8.80;99.90
11736;DHT22;5924;51.398;7.088;2023-04-15T15:41:42;8.80;99.90
11736;DHT22;5924;51.398;7.088;2023-04-15T15:44:07;8.70;99.90
11736;DHT22;5924;51.398;7.088;2023-04-15T15:46:33;8.70;99.90
11736;DHT22;5924;51.398;7.088;2023-04-15T15:49:01;8.70;99.90
11736;DHT22;5924;51.398;7.088;2023-04-15T15:51:27;8.60;99.90
11736;DHT22;5924;51.398;7.088;2023-04-15T15:53:53;8.60;99.90
11736;DHT22;5924;51.398;7.088;2023-04-15T15:56:19;8.60;99.90
11736;DHT22;5924;51.398;7.088;2023-04-15T15:58:44;8.60;99.90
11736;DHT22;5924;51.398;7.088;2023-04-15T16:01:10;8.60;99.90
11736;DHT22;5924;51.398;7.088;2023-04-15T16:03:36;8.60;99.90
11736;DHT22;5924;51.398;7.088;2023-04-15T16:06:03;8.60;99.90
11736;DHT22;5924;51.398;7.088;2023-04-15T16:08:28;8.60;99.90
11736;DHT22;5924;51.398;7.088;2023-04-15T16:10:54;8.60;99.90